Terminal Aerodrome Forecast
Issued by NWS Dodge City, KS

Home | Current Version | Previous Version | Text Only | Print | Product List | Glossary On
Versions: 1 2 3 4 5 6 7 8 9 10 11 12 13 14 15 16 17 18 19 20 21 22 23 24 25 26
000
FTUS43 KDDC 261743 RRA
TAFDDC
TAF
KDDC 261743Z 2618/2718 02011KT P6SM SKC
     FM271000 14006KT P6SM VCTS BKN050CB WS020/17040KT
     FM271200 11006KT P6SM OVC008
     FM271400 03007KT P6SM OVC003=

USA.gov is the U.S. government's official web portal to all federal, state and local government web resources and services.